createdAt,value
2024-04-04T00:01:42.170Z,99798.11
2024-04-04T00:04:13.448Z,99798.10
2024-04-04T00:06:44.677Z,99793.33
2024-04-04T00:09:16.789Z,99792.54
2024-04-04T00:11:47.992Z,99791.13
2024-04-04T00:14:19.176Z,99787.05
2024-04-04T00:16:51.590Z,99788.31
2024-04-04T00:19:22.733Z,99790.45
2024-04-04T00:21:53.917Z,99789.96
2024-04-04T00:24:25.054Z,99790.28
2024-04-04T00:27:01.878Z,99787.79
2024-04-04T00:29:40.270Z,99786.48
2024-04-04T00:32:11.715Z,99781.15
2024-04-04T00:34:43.171Z,99782.05
2024-04-04T00:37:14.397Z,99782.44
2024-04-04T00:39:45.539Z,99785.20
2024-04-04T00:42:16.607Z,99781.06
2024-04-04T00:44:47.771Z,99778.15
2024-04-04T00:47:19.338Z,99775.31
2024-04-04T00:49:50.904Z,99778.59
2024-04-04T00:52:22.061Z,99778.35
2024-04-04T00:54:54.924Z,99781.48
2024-04-04T00:57:26.122Z,99776.26
2024-04-04T00:59:58.793Z,99782.07
2024-04-04T01:02:29.827Z,99783.97
2024-04-04T01:05:00.995Z,99785.90
2024-04-04T01:07:36.124Z,99786.09
2024-04-04T01:10:11.262Z,99787.99
2024-04-04T01:12:42.497Z,99789.48
2024-04-04T01:15:13.648Z,99794.57
2024-04-04T01:17:46.423Z,99795.21
2024-04-04T01:20:17.549Z,99788.77
2024-04-04T01:22:48.586Z,99790.46
2024-04-04T01:25:20.266Z,99789.34
2024-04-04T01:27:51.310Z,99781.49
2024-04-04T01:30:22.482Z,99784.65
2024-04-04T01:32:53.642Z,99784.19
2024-04-04T01:35:24.798Z,99790.13
2024-04-04T01:37:56.283Z,99793.79
2024-04-04T01:40:27.492Z,99787.98
2024-04-04T01:42:58.622Z,99786.58
2024-04-04T01:45:29.733Z,99788.77
2024-04-04T01:48:00.977Z,99793.55
2024-04-04T01:50:32.018Z,99799.95
2024-04-04T01:53:03.178Z,99795.15
2024-04-04T01:55:35.002Z,99795.13
2024-04-04T01:58:06.316Z,99796.52
2024-04-04T02:00:37.461Z,99791.23
2024-04-04T02:03:08.790Z,99790.98
2024-04-04T02:05:40.091Z,99796.49
2024-04-04T02:08:11.707Z,99792.61
2024-04-04T02:10:43.945Z,99788.15
2024-04-04T02:13:15.145Z,99783.84
2024-04-04T02:15:46.286Z,99785.27
2024-04-04T02:18:18.286Z,99784.06
2024-04-04T02:20:51.372Z,99782.16
2024-04-04T02:23:22.459Z,99777.46
2024-04-04T02:25:53.559Z,99770.65
2024-04-04T02:28:24.749Z,99763.98
2024-04-04T02:30:56.200Z,99765.98
2024-04-04T02:33:27.134Z,99767.16
2024-04-04T02:35:59.354Z,99763.95
2024-04-04T02:38:32.409Z,99765.20
2024-04-04T02:41:05.553Z,99765.24
2024-04-04T02:43:38.136Z,99766.45
2024-04-04T02:46:09.889Z,99764.77
2024-04-04T02:48:40.943Z,99764.91
2024-04-04T02:51:12.681Z,99765.64
2024-04-04T02:53:44.018Z,99762.82
2024-04-04T02:56:15.107Z,99756.49
2024-04-04T02:58:46.943Z,99753.98
2024-04-04T03:01:18.015Z,99752.90
2024-04-04T03:03:49.417Z,99753.73
2024-04-04T03:06:22.268Z,99757.45
2024-04-04T03:08:53.796Z,99759.52
2024-04-04T03:11:24.935Z,99758.85
2024-04-04T03:13:56.232Z,99757.23
2024-04-04T03:16:27.408Z,99757.98
2024-04-04T03:18:58.462Z,99754.13
2024-04-04T03:21:29.977Z,99753.58
2024-04-04T03:24:01.038Z,99750.27
2024-04-04T03:26:32.176Z,99753.55
2024-04-04T03:29:04.350Z,99757.56
2024-04-04T03:31:35.408Z,99754.98
2024-04-04T03:34:06.457Z,99762.12
2024-04-04T03:36:37.688Z,99768.70
2024-04-04T03:39:08.867Z,99768.65
2024-04-04T03:41:40.009Z,99765.27
2024-04-04T03:44:11.202Z,99767.99
2024-04-04T03:46:42.210Z,99766.59
2024-04-04T03:49:13.420Z,99763.07
2024-04-04T03:51:44.547Z,99756.45
2024-04-04T03:54:15.744Z,99755.16
2024-04-04T03:56:52.718Z,99757.55
2024-04-04T03:59:31.319Z,99754.38
2024-04-04T04:02:02.474Z,99756.00
2024-04-04T04:04:36.081Z,99749.69
2024-04-04T04:07:07.446Z,99751.22
2024-04-04T04:09:38.663Z,99746.85
2024-04-04T04:12:10.213Z,99745.38
2024-04-04T04:14:41.604Z,99747.85
2024-04-04T04:17:13.221Z,99750.26
2024-04-04T04:19:44.408Z,99757.77
2024-04-04T04:22:15.775Z,99754.83
2024-04-04T04:24:47.043Z,99754.23
2024-04-04T04:27:18.342Z,99756.98
2024-04-04T04:29:49.406Z,99755.95
2024-04-04T04:32:20.779Z,99758.08
2024-04-04T04:34:51.971Z,99759.07
2024-04-04T04:37:23.088Z,99759.15
2024-04-04T04:39:54.147Z,99756.34
2024-04-04T04:42:25.429Z,99756.59
2024-04-04T04:44:56.642Z,99758.69
2024-04-04T04:47:27.799Z,99759.42
2024-04-04T04:49:59.037Z,99766.69
2024-04-04T04:52:31.627Z,99765.77
2024-04-04T04:55:03.541Z,99766.89
2024-04-04T04:57:34.910Z,99766.61
2024-04-04T05:00:11.120Z,99770.22
2024-04-04T05:02:42.578Z,99773.02
2024-04-04T05:05:17.985Z,99772.89
2024-04-04T05:07:49.552Z,99774.26
2024-04-04T05:10:20.769Z,99773.08
2024-04-04T05:12:51.992Z,99771.67
2024-04-04T05:15:23.184Z,99772.54
2024-04-04T05:17:54.435Z,99777.76
2024-04-04T05:20:25.871Z,99777.05
2024-04-04T05:22:57.122Z,99771.07
2024-04-04T05:25:28.507Z,99775.70
2024-04-04T05:27:59.875Z,99778.30
2024-04-04T05:30:32.547Z,99776.99
2024-04-04T05:33:05.506Z,99773.70
2024-04-04T05:35:37.253Z,99774.09
2024-04-04T05:38:09.906Z,99768.50
2024-04-04T05:40:41.071Z,99764.03
2024-04-04T05:43:12.365Z,99762.54
2024-04-04T05:45:43.839Z,99760.48
2024-04-04T05:48:15.059Z,99764.55
2024-04-04T05:50:46.318Z,99764.27
2024-04-04T05:53:17.752Z,99761.21
2024-04-04T05:55:49.684Z,99761.45
2024-04-04T05:58:20.771Z,99762.20
2024-04-04T06:00:53.250Z,99764.79
2024-04-04T06:03:24.974Z,99764.52
2024-04-04T06:05:56.317Z,99768.23
2024-04-04T06:08:27.877Z,99766.31
2024-04-04T06:10:59.242Z,99769.96
2024-04-04T06:13:30.499Z,99769.01
2024-04-04T06:16:03.618Z,99768.29
2024-04-04T06:18:35.047Z,99774.96
2024-04-04T06:21:06.848Z,99776.70
2024-04-04T06:23:38.868Z,99774.70
2024-04-04T06:26:09.884Z,99772.61
2024-04-04T06:28:42.384Z,99771.66
2024-04-04T06:31:13.831Z,99773.02
2024-04-04T06:33:45.137Z,99775.85
2024-04-04T06:36:17.416Z,99778.12
2024-04-04T06:38:49.091Z,99783.77
2024-04-04T06:41:20.357Z,99786.64
2024-04-04T06:43:52.353Z,99782.33
2024-04-04T06:46:24.859Z,99777.25
2024-04-04T06:48:56.352Z,99768.61
2024-04-04T06:51:28.080Z,99777.21
2024-04-04T06:53:59.571Z,99779.66
2024-04-04T06:56:34.159Z,99773.35
2024-04-04T06:59:07.236Z,99779.21
2024-04-04T07:01:39.964Z,99779.73
2024-04-04T07:04:11.657Z,99775.45
2024-04-04T07:06:43.423Z,99776.00
2024-04-04T07:09:14.782Z,99772.23
2024-04-04T07:11:46.505Z,99780.02
2024-04-04T07:14:17.783Z,99787.23
2024-04-04T07:16:49.189Z,99784.35
2024-04-04T07:19:21.074Z,99782.08
2024-04-04T07:21:53.534Z,99785.50
2024-04-04T07:24:27.283Z,99782.52
2024-04-04T07:26:58.631Z,99782.29
2024-04-04T07:29:29.889Z,99784.73
2024-04-04T07:32:01.461Z,99787.50
2024-04-04T07:34:33.335Z,99786.75
2024-04-04T07:37:05.598Z,99785.27
2024-04-04T07:39:37.995Z,99781.06
2024-04-04T07:42:11.338Z,99777.63
2024-04-04T07:44:42.578Z,99778.87
2024-04-04T07:47:13.817Z,99783.30
2024-04-04T07:49:45.266Z,99787.75
2024-04-04T07:52:16.922Z,99789.13
2024-04-04T07:54:48.474Z,99791.67
2024-04-04T07:57:20.058Z,99793.41
2024-04-04T07:59:54.596Z,99792.58
2024-04-04T08:02:28.087Z,99789.72
2024-04-04T08:04:59.955Z,99793.11
2024-04-04T08:07:37.295Z,99788.91
2024-04-04T08:10:14.553Z,99786.70
2024-04-04T08:12:46.182Z,99791.81
2024-04-04T08:15:18.954Z,99791.35
2024-04-04T08:17:57.306Z,99789.16
2024-04-04T08:20:29.355Z,99787.05
2024-04-04T08:23:02.519Z,99781.08
2024-04-04T08:25:34.442Z,99777.42
2024-04-04T08:28:08.405Z,99777.63
2024-04-04T08:30:40.024Z,99780.14
2024-04-04T08:33:11.463Z,99783.74
2024-04-04T08:35:44.191Z,99785.20
2024-04-04T08:38:17.722Z,99783.48
2024-04-04T08:40:53.107Z,99785.23
2024-04-04T08:43:30.557Z,99778.80
2024-04-04T08:46:07.855Z,99777.48
2024-04-04T08:48:43.555Z,99780.86
2024-04-04T08:51:17.035Z,99779.95
2024-04-04T08:53:48.765Z,99775.04
2024-04-04T08:56:20.966Z,99767.80
2024-04-04T08:58:54.510Z,99761.83
2024-04-04T09:01:33.995Z,99762.18
2024-04-04T09:04:09.421Z,99757.79
2024-04-04T09:06:40.847Z,99759.80
2024-04-04T09:09:13.026Z,99758.08
2024-04-04T09:11:45.605Z,99747.70
2024-04-04T09:14:17.741Z,99748.80
2024-04-04T09:16:51.762Z,99751.46
2024-04-04T09:19:25.213Z,99751.20
2024-04-04T09:21:57.765Z,99754.14
2024-04-04T09:24:33.896Z,99754.05
2024-04-04T09:27:07.876Z,99757.37
2024-04-04T09:29:40.747Z,99754.31
2024-04-04T09:32:14.469Z,99742.89
2024-04-04T09:34:47.179Z,99741.11
2024-04-04T09:37:21.685Z,99740.95
2024-04-04T09:39:53.379Z,99742.73
2024-04-04T09:42:32.130Z,99746.23
2024-04-04T09:45:03.439Z,99745.38
2024-04-04T09:47:35.509Z,99752.97
2024-04-04T09:50:10.562Z,99754.33
2024-04-04T09:52:42.424Z,99759.66
2024-04-04T09:55:16.296Z,99759.41
2024-04-04T09:57:50.412Z,99759.14
2024-04-04T10:00:24.260Z,99753.66
2024-04-04T10:03:03.559Z,99757.60
2024-04-04T10:05:39.512Z,99756.39
2024-04-04T10:08:13.444Z,99754.16
2024-04-04T10:10:46.827Z,99752.72
2024-04-04T10:13:21.742Z,99749.63
2024-04-04T10:15:59.157Z,99748.38
2024-04-04T10:18:31.170Z,99747.94
2024-04-04T10:21:05.328Z,99743.56
2024-04-04T10:23:42.255Z,99738.67
2024-04-04T10:26:19.088Z,99739.55
2024-04-04T10:28:51.280Z,99737.16
2024-04-04T10:31:22.874Z,99733.63
2024-04-04T10:34:13.411Z,99728.10
2024-04-04T10:36:49.758Z,99728.30
2024-04-04T10:39:29.521Z,99724.30
2024-04-04T10:42:01.767Z,99722.92
2024-04-04T10:44:37.813Z,99721.44
2024-04-04T10:47:12.681Z,99718.98
2024-04-04T10:49:44.301Z,99718.73
2024-04-04T10:52:20.852Z,99720.48
2024-04-04T10:54:52.382Z,99720.45
2024-04-04T10:57:25.002Z,99721.27
2024-04-04T10:59:58.578Z,99716.80
2024-04-04T11:02:32.390Z,99718.02
2024-04-04T11:05:06.041Z,99722.77
2024-04-04T11:07:40.192Z,99729.98
2024-04-04T11:10:12.111Z,99724.28
2024-04-04T11:12:44.291Z,99720.70
2024-04-04T11:15:16.942Z,99712.96
2024-04-04T11:17:49.422Z,99707.35
2024-04-04T11:20:21.150Z,99703.88
2024-04-04T11:22:53.656Z,99706.50
2024-04-04T11:25:25.780Z,99709.72
2024-04-04T11:27:57.399Z,99707.81
2024-04-04T11:30:29.049Z,99705.74
2024-04-04T11:33:01.059Z,99704.67
2024-04-04T11:35:32.155Z,99705.73
2024-04-04T11:38:03.634Z,99707.94
2024-04-04T11:40:37.051Z,99709.73
2024-04-04T11:43:09.119Z,99713.28
2024-04-04T11:45:40.471Z,99712.22
2024-04-04T11:48:16.211Z,99711.48
2024-04-04T11:50:47.759Z,99709.77
2024-04-04T11:53:19.191Z,99703.91
2024-04-04T11:55:50.455Z,99703.46
2024-04-04T11:58:28.795Z,99702.70
2024-04-04T12:01:01.659Z,99700.98
2024-04-04T12:03:33.412Z,99702.20
2024-04-04T12:06:04.975Z,99698.60
2024-04-04T12:08:36.485Z,99696.30
2024-04-04T12:11:10.833Z,99700.17
2024-04-04T12:13:42.265Z,99693.08
2024-04-04T12:16:13.713Z,99691.14
2024-04-04T12:19:02.322Z,99692.95
2024-04-04T12:21:35.963Z,99692.71
2024-04-04T12:24:08.633Z,99690.00
2024-04-04T12:26:40.385Z,99689.91
2024-04-04T12:29:13.012Z,99687.33
2024-04-04T12:31:44.150Z,99684.35
2024-04-04T12:34:15.492Z,99687.02
2024-04-04T12:36:46.674Z,99685.67
2024-04-04T12:39:18.727Z,99683.73
2024-04-04T12:41:50.184Z,99682.42
2024-04-04T12:44:22.376Z,99679.91
2024-04-04T12:46:53.497Z,99675.70
2024-04-04T12:49:24.700Z,99672.80
2024-04-04T12:51:56.328Z,99673.46
2024-04-04T12:54:28.275Z,99673.65
2024-04-04T12:56:59.707Z,99671.20
2024-04-04T12:59:33.197Z,99670.73
2024-04-04T13:02:04.684Z,99669.14
2024-04-04T13:04:35.815Z,99660.72
2024-04-04T13:07:07.379Z,99655.79
2024-04-04T13:09:39.563Z,99652.48
2024-04-04T13:12:11.515Z,99654.34
2024-04-04T13:14:43.090Z,99654.19
2024-04-04T13:17:14.910Z,99658.81
2024-04-04T13:19:47.176Z,99659.09
2024-04-04T13:22:18.548Z,99654.60
2024-04-04T13:24:54.130Z,99655.29
2024-04-04T13:27:25.922Z,99653.42
2024-04-04T13:29:57.095Z,99652.48
2024-04-04T13:32:28.458Z,99656.23
2024-04-04T13:34:59.995Z,99653.68
2024-04-04T13:37:31.789Z,99653.67
2024-04-04T13:40:10.461Z,99652.50
2024-04-04T13:42:45.385Z,99651.67
2024-04-04T13:45:17.996Z,99648.98
2024-04-04T13:47:49.876Z,99650.63
2024-04-04T13:50:25.531Z,99651.34
2024-04-04T13:52:58.440Z,99650.47
2024-04-04T13:55:30.525Z,99650.02
2024-04-04T13:58:02.365Z,99650.52
2024-04-04T14:00:34.674Z,99656.16
2024-04-04T14:03:07.109Z,99655.56
2024-04-04T14:05:38.591Z,99651.32
2024-04-04T14:08:10.401Z,99649.20
2024-04-04T14:10:41.599Z,99640.55
2024-04-04T14:13:12.925Z,99639.46
2024-04-04T14:15:45.225Z,99633.05
2024-04-04T14:18:36.152Z,99625.77
2024-04-04T14:21:08.965Z,99628.27
2024-04-04T14:23:40.440Z,99621.94
2024-04-04T14:26:13.792Z,99627.73
2024-04-04T14:28:45.083Z,99623.37
2024-04-04T14:31:16.752Z,99624.52
2024-04-04T14:33:49.100Z,99617.65
2024-04-04T14:36:20.452Z,99609.40
2024-04-04T14:38:53.642Z,99604.59
2024-04-04T14:41:25.913Z,99606.86
2024-04-04T14:43:57.436Z,99606.36
2024-04-04T14:46:29.157Z,99605.40
2024-04-04T14:49:00.632Z,99605.70
2024-04-04T14:51:32.063Z,99606.39
2024-04-04T14:54:03.600Z,99602.48
2024-04-04T14:56:35.179Z,99602.22
2024-04-04T14:59:07.380Z,99602.67
2024-04-04T15:01:38.613Z,99602.35
2024-04-04T15:04:10.712Z,99599.71
2024-04-04T15:06:41.919Z,99597.42
2024-04-04T15:09:13.473Z,99594.78
2024-04-04T15:11:44.862Z,99597.67
2024-04-04T15:14:16.787Z,99593.83
2024-04-04T15:16:48.103Z,99594.06
2024-04-04T15:19:19.742Z,99591.02
2024-04-04T15:21:51.089Z,99590.86
2024-04-04T15:24:23.329Z,99588.33
2024-04-04T15:26:55.300Z,99589.79
2024-04-04T15:29:26.965Z,99587.31
2024-04-04T15:31:59.898Z,99591.80
2024-04-04T15:34:33.196Z,99587.54
2024-04-04T15:37:05.631Z,99584.55
2024-04-04T15:39:38.439Z,99582.66
2024-04-04T15:42:10.519Z,99584.55
2024-04-04T15:44:45.640Z,99585.27
2024-04-04T15:47:16.941Z,99582.73
2024-04-04T15:49:48.646Z,99573.56
2024-04-04T15:52:20.145Z,99572.00
2024-04-04T15:54:53.693Z,99579.13
2024-04-04T15:57:25.360Z,99579.42
2024-04-04T15:59:59.211Z,99584.86
2024-04-04T16:02:33.010Z,99587.30
2024-04-04T16:05:07.183Z,99586.91
2024-04-04T16:07:38.354Z,99589.52
2024-04-04T16:10:14.282Z,99591.71
2024-04-04T16:12:46.357Z,99590.09
2024-04-04T16:15:18.249Z,99591.41
2024-04-04T16:17:50.339Z,99592.41
2024-04-04T16:20:22.180Z,99589.91
2024-04-04T16:22:54.441Z,99592.49
2024-04-04T16:25:25.896Z,99589.44
2024-04-04T16:27:58.810Z,99588.21
2024-04-04T16:30:29.899Z,99594.33
2024-04-04T16:33:01.564Z,99594.60
2024-04-04T16:35:33.032Z,99594.54
2024-04-04T16:38:04.814Z,99593.34
2024-04-04T16:40:37.044Z,99594.33
2024-04-04T16:43:08.659Z,99594.48
2024-04-04T16:45:41.168Z,99594.55
2024-04-04T16:48:13.173Z,99591.45
2024-04-04T16:50:44.598Z,99588.04
2024-04-04T16:53:20.310Z,99584.59
2024-04-04T16:55:51.620Z,99584.71
2024-04-04T16:58:23.134Z,99587.76
2024-04-04T17:00:54.565Z,99592.92
2024-04-04T17:03:26.250Z,99596.02
2024-04-04T17:05:58.583Z,99596.02
2024-04-04T17:08:29.948Z,99596.42
2024-04-04T17:11:01.415Z,99598.17
2024-04-04T17:13:33.148Z,99600.84
2024-04-04T17:16:08.811Z,99597.99
2024-04-04T17:18:41.323Z,99599.21
2024-04-04T17:21:12.739Z,99600.19
2024-04-04T17:23:44.057Z,99598.96
2024-04-04T17:26:16.688Z,99601.08
2024-04-04T17:28:50.407Z,99600.36
2024-04-04T17:31:21.619Z,99602.38
2024-04-04T17:33:53.228Z,99602.72
2024-04-04T17:36:24.515Z,99606.55
2024-04-04T17:38:55.809Z,99601.89
2024-04-04T17:41:26.978Z,99597.80
2024-04-04T17:43:58.556Z,99597.66
2024-04-04T17:46:30.066Z,99598.00
2024-04-04T17:49:02.026Z,99597.63
2024-04-04T17:51:43.480Z,99598.69
2024-04-04T17:54:16.308Z,99594.13
2024-04-04T17:57:13.391Z,99587.72
2024-04-04T17:59:45.060Z,99591.90
2024-04-04T18:02:18.466Z,99592.30
2024-04-04T18:04:57.256Z,99599.96
2024-04-04T18:07:32.045Z,99590.58
2024-04-04T18:10:11.355Z,99592.08
2024-04-04T18:12:55.906Z,99592.57
2024-04-04T18:15:44.704Z,99590.28
2024-04-04T18:18:18.310Z,99588.04
2024-04-04T18:20:51.236Z,99588.48
2024-04-04T18:23:23.977Z,99585.70
2024-04-04T18:25:57.783Z,99588.83
2024-04-04T18:28:30.072Z,99587.22
2024-04-04T18:31:04.234Z,99580.23
2024-04-04T18:33:39.328Z,99581.15
2024-04-04T18:36:10.788Z,99583.62
2024-04-04T18:38:49.235Z,99588.76
2024-04-04T18:41:21.709Z,99587.66
2024-04-04T18:43:57.450Z,99584.65
2024-04-04T18:46:38.391Z,99581.28
2024-04-04T18:49:11.946Z,99579.14
2024-04-04T18:51:45.599Z,99578.13
2024-04-04T18:54:20.470Z,99576.13
2024-04-04T18:56:53.251Z,99577.91
2024-04-04T18:59:26.258Z,99574.29
2024-04-04T19:01:58.740Z,99573.02
2024-04-04T19:04:33.335Z,99570.36
2024-04-04T19:07:08.339Z,99568.91
2024-04-04T19:09:41.342Z,99568.95
2024-04-04T19:12:15.964Z,99570.23
2024-04-04T19:14:52.451Z,99568.42
2024-04-04T19:17:28.438Z,99569.14
2024-04-04T19:20:01.591Z,99569.15
2024-04-04T19:22:36.699Z,99567.88
2024-04-04T19:25:11.120Z,99568.34
2024-04-04T19:27:43.376Z,99567.27
2024-04-04T19:30:16.180Z,99565.90
2024-04-04T19:32:48.526Z,99571.20
2024-04-04T19:35:22.267Z,99571.44
2024-04-04T19:37:56.308Z,99569.11
2024-04-04T19:40:30.687Z,99577.14
2024-04-04T19:43:05.042Z,99582.90
2024-04-04T19:45:38.013Z,99582.17
2024-04-04T19:48:12.930Z,99587.46
2024-04-04T19:50:45.710Z,99585.45
2024-04-04T19:53:19.080Z,99584.63
2024-04-04T19:55:51.324Z,99589.61
2024-04-04T19:58:26.440Z,99586.90
2024-04-04T20:01:00.070Z,99586.28
2024-04-04T20:03:33.838Z,99587.69
2024-04-04T20:06:08.226Z,99585.48
2024-04-04T20:08:40.252Z,99586.43
2024-04-04T20:11:13.051Z,99589.61
2024-04-04T20:13:51.042Z,99587.39
2024-04-04T20:16:23.413Z,99594.71
2024-04-04T20:18:56.142Z,99590.84
2024-04-04T20:21:27.833Z,99590.80
2024-04-04T20:23:59.739Z,99594.19
2024-04-04T20:26:30.966Z,99594.34
2024-04-04T20:29:02.881Z,99595.27
2024-04-04T20:31:38.251Z,99589.78
2024-04-04T20:34:10.527Z,99587.95
2024-04-04T20:36:43.303Z,99584.81
2024-04-04T20:39:15.858Z,99578.48
2024-04-04T20:41:47.996Z,99574.58
2024-04-04T20:44:19.960Z,99574.41
2024-04-04T20:46:51.497Z,99572.78
2024-04-04T20:49:23.635Z,99571.82
2024-04-04T20:51:56.312Z,99571.20
2024-04-04T20:54:28.008Z,99576.29
2024-04-04T20:56:59.372Z,99573.27
2024-04-04T20:59:30.674Z,99579.45
2024-04-04T21:02:02.107Z,99580.11
2024-04-04T21:04:33.359Z,99577.04
2024-04-04T21:07:04.786Z,99571.87
2024-04-04T21:09:36.080Z,99571.45
2024-04-04T21:12:09.001Z,99572.03
2024-04-04T21:14:40.672Z,99567.73
2024-04-04T21:17:14.195Z,99566.95
2024-04-04T21:19:52.212Z,99556.02
2024-04-04T21:22:30.578Z,99552.10
2024-04-04T21:25:06.482Z,99547.27
2024-04-04T21:27:38.016Z,99543.93
2024-04-04T21:30:11.226Z,99541.52
2024-04-04T21:32:42.526Z,99536.55
2024-04-04T21:35:14.622Z,99536.23
2024-04-04T21:37:45.861Z,99536.91
2024-04-04T21:40:17.190Z,99535.35
2024-04-04T21:42:50.817Z,99533.88
2024-04-04T21:45:22.766Z,99534.09
2024-04-04T21:47:54.492Z,99537.27
2024-04-04T21:50:26.040Z,99538.42
2024-04-04T21:52:57.356Z,99539.95
2024-04-04T21:55:28.492Z,99540.08
2024-04-04T21:58:00.601Z,99541.83
2024-04-04T22:00:36.850Z,99542.23
2024-04-04T22:03:10.476Z,99542.45
2024-04-04T22:05:42.210Z,99543.65
2024-04-04T22:08:14.153Z,99545.71
2024-04-04T22:10:45.821Z,99543.40
2024-04-04T22:13:19.018Z,99547.94
2024-04-04T22:15:52.546Z,99550.55
2024-04-04T22:18:24.989Z,99552.75
2024-04-04T22:21:03.246Z,99550.89
2024-04-04T22:23:35.273Z,99554.79
2024-04-04T22:26:10.309Z,99548.80
2024-04-04T22:28:41.551Z,99549.27
2024-04-04T22:31:13.311Z,99549.60
2024-04-04T22:33:44.499Z,99549.04
2024-04-04T22:36:15.693Z,99549.23
2024-04-04T22:38:46.941Z,99549.53
2024-04-04T22:41:18.099Z,99550.81
2024-04-04T22:43:49.321Z,99545.89
2024-04-04T22:46:20.333Z,99549.29
2024-04-04T22:48:51.892Z,99548.37
2024-04-04T22:51:23.316Z,99552.36
2024-04-04T22:53:54.556Z,99555.10
2024-04-04T22:56:25.729Z,99552.63
2024-04-04T22:58:57.217Z,99550.23
2024-04-04T23:01:29.708Z,99553.13
2024-04-04T23:04:01.131Z,99554.29
2024-04-04T23:06:32.719Z,99551.66
2024-04-04T23:09:04.462Z,99551.92
2024-04-04T23:11:35.827Z,99555.98
2024-04-04T23:14:07.088Z,99553.45
2024-04-04T23:16:38.569Z,99552.93
2024-04-04T23:19:09.755Z,99548.62
2024-04-04T23:21:41.158Z,99549.47
2024-04-04T23:24:12.460Z,99549.08
2024-04-04T23:26:43.694Z,99546.77
2024-04-04T23:29:15.085Z,99554.85
2024-04-04T23:31:46.287Z,99553.73
2024-04-04T23:34:17.502Z,99554.81
2024-04-04T23:36:48.751Z,99555.77
2024-04-04T23:39:19.800Z,99558.28
2024-04-04T23:41:50.956Z,99560.84
2024-04-04T23:44:22.204Z,99558.95
2024-04-04T23:46:53.232Z,99567.55
2024-04-04T23:49:24.314Z,99570.43
2024-04-04T23:51:55.366Z,99569.44
2024-04-04T23:54:26.540Z,99573.33
2024-04-04T23:56:57.692Z,99578.46
2024-04-04T23:59:29.176Z,99580.70
